createdAt,value
2022-11-23T00:01:15.669Z,6.57
2022-11-23T00:03:46.100Z,8.00
2022-11-23T00:06:14.576Z,5.80
2022-11-23T00:08:43.207Z,4.93
2022-11-23T00:11:11.441Z,11.53
2022-11-23T00:13:40.907Z,11.37
2022-11-23T00:16:18.065Z,8.27
2022-11-23T00:18:52.574Z,5.30
2022-11-23T00:21:22.276Z,11.70
2022-11-23T00:23:54.408Z,10.67
2022-11-23T00:26:30.857Z,9.70
2022-11-23T00:29:01.648Z,12.17
2022-11-23T00:31:30.306Z,8.83
2022-11-23T00:34:00.191Z,8.50
2022-11-23T00:36:29.061Z,12.30
2022-11-23T00:38:58.937Z,4.67
2022-11-23T00:41:30.323Z,7.97
2022-11-23T00:43:58.379Z,5.23
2022-11-23T00:46:27.914Z,6.93
2022-11-23T00:49:05.908Z,7.57
2022-11-23T00:51:36.413Z,6.10
2022-11-23T00:54:06.563Z,5.43
2022-11-23T00:56:40.182Z,4.50
2022-11-23T00:59:16.205Z,5.43
2022-11-23T01:01:45.162Z,6.50
2022-11-23T01:04:17.246Z,9.50
2022-11-23T01:06:45.473Z,8.97
2022-11-23T01:09:17.959Z,10.43
2022-11-23T01:11:46.788Z,4.63
2022-11-23T01:14:16.350Z,7.77
2022-11-23T01:16:45.556Z,7.33
2022-11-23T01:19:20.223Z,7.00
2022-11-23T01:21:48.386Z,11.10
2022-11-23T01:24:23.457Z,10.30
2022-11-23T01:26:53.573Z,6.80
2022-11-23T01:29:22.759Z,5.30
2022-11-23T01:31:51.094Z,6.50
2022-11-23T01:34:21.867Z,5.60
2022-11-23T01:36:50.201Z,9.80
2022-11-23T01:39:21.439Z,9.20
2022-11-23T01:41:49.548Z,11.93
2022-11-23T01:44:26.521Z,4.83
2022-11-23T01:46:55.700Z,6.90
2022-11-23T01:49:26.403Z,8.03
2022-11-23T01:51:57.761Z,7.97
2022-11-23T01:54:33.568Z,7.10
2022-11-23T01:57:06.487Z,11.23
2022-11-23T01:59:37.725Z,4.87
2022-11-23T02:02:06.807Z,7.30
2022-11-23T02:04:41.814Z,8.97
2022-11-23T02:07:10.568Z,9.20
2022-11-23T02:09:39.355Z,4.40
2022-11-23T02:12:14.372Z,8.80
2022-11-23T02:14:43.682Z,8.33
2022-11-23T02:17:25.591Z,11.33
2022-11-23T02:20:06.951Z,12.00
2022-11-23T02:22:46.070Z,9.20
2022-11-23T02:25:25.510Z,9.60
2022-11-23T02:27:56.642Z,7.40
2022-11-23T02:30:26.304Z,8.80
2022-11-23T02:32:57.535Z,15.00
2022-11-23T02:35:27.902Z,8.97
2022-11-23T02:37:56.341Z,8.10
2022-11-23T02:40:29.893Z,8.40
2022-11-23T02:42:59.791Z,12.07
2022-11-23T02:45:37.355Z,4.40
2022-11-23T02:48:06.222Z,7.70
2022-11-23T02:50:34.741Z,6.57
2022-11-23T02:53:02.846Z,4.87
2022-11-23T02:55:33.003Z,8.63
2022-11-23T02:58:02.740Z,5.90
2022-11-23T03:00:31.282Z,5.67
2022-11-23T03:03:08.438Z,8.40
2022-11-23T03:05:37.065Z,4.00
2022-11-23T03:08:07.815Z,6.70
2022-11-23T03:10:38.441Z,12.03
2022-11-23T03:13:08.143Z,7.07
2022-11-23T03:15:39.074Z,8.27
2022-11-23T03:18:07.423Z,6.80
2022-11-23T03:20:36.267Z,8.70
2022-11-23T03:23:07.701Z,7.30
2022-11-23T03:25:37.305Z,7.47
2022-11-23T03:28:09.743Z,5.83
2022-11-23T03:30:38.064Z,7.97
2022-11-23T03:33:07.387Z,5.97
2022-11-23T03:35:38.924Z,6.17
2022-11-23T03:38:10.169Z,9.00
2022-11-23T03:40:38.676Z,6.30
2022-11-23T03:43:09.900Z,4.60
2022-11-23T03:45:39.146Z,5.07
2022-11-23T03:48:09.584Z,8.97
2022-11-23T03:50:38.450Z,6.43
2022-11-23T03:53:09.220Z,5.20
2022-11-23T03:55:39.018Z,4.10
2022-11-23T03:58:10.633Z,4.60
2022-11-23T04:00:39.038Z,6.10
2022-11-23T04:03:12.478Z,4.90
2022-11-23T04:05:43.376Z,9.70
2022-11-23T04:08:21.049Z,8.03
2022-11-23T04:10:53.632Z,10.30
2022-11-23T04:13:25.845Z,11.27
2022-11-23T04:15:54.250Z,5.17
2022-11-23T04:18:22.827Z,8.40
2022-11-23T04:20:53.567Z,4.63
2022-11-23T04:23:33.184Z,5.77
2022-11-23T04:26:05.689Z,9.03
2022-11-23T04:28:39.576Z,7.00
2022-11-23T04:31:08.367Z,3.57
2022-11-23T04:33:37.302Z,18.80
2022-11-23T04:36:07.178Z,8.03
2022-11-23T04:38:43.233Z,6.80
2022-11-23T04:41:14.624Z,11.67
2022-11-23T04:43:44.482Z,6.53
2022-11-23T04:46:13.648Z,6.10
2022-11-23T04:48:41.963Z,7.17
2022-11-23T04:51:10.323Z,4.73
2022-11-23T04:53:39.042Z,6.50
2022-11-23T04:56:08.142Z,5.33
2022-11-23T04:58:36.721Z,7.23
2022-11-23T05:01:07.558Z,4.30
2022-11-23T05:03:36.301Z,4.30
2022-11-23T05:06:07.381Z,9.33
2022-11-23T05:08:38.241Z,6.63
2022-11-23T05:11:08.451Z,5.87
2022-11-23T05:13:44.153Z,6.97
2022-11-23T05:16:18.721Z,7.87
2022-11-23T05:18:48.863Z,9.80
2022-11-23T05:21:18.051Z,7.73
2022-11-23T05:23:47.883Z,10.00
2022-11-23T05:26:19.716Z,7.77
2022-11-23T05:28:50.559Z,12.50
2022-11-23T05:31:20.115Z,9.43
2022-11-23T05:33:51.068Z,8.93
2022-11-23T05:36:19.365Z,10.03
2022-11-23T05:38:47.718Z,9.77
2022-11-23T05:41:17.878Z,11.10
2022-11-23T05:43:46.152Z,10.50
2022-11-23T05:46:19.076Z,8.13
2022-11-23T05:48:48.722Z,7.77
2022-11-23T05:51:20.962Z,6.47
2022-11-23T05:53:49.803Z,8.23
2022-11-23T05:56:18.121Z,6.90
2022-11-23T05:58:47.150Z,19.50
2022-11-23T06:01:21.442Z,8.40
2022-11-23T06:03:55.385Z,8.00
2022-11-23T06:06:23.842Z,11.07
2022-11-23T06:08:54.867Z,9.10
2022-11-23T06:11:23.144Z,5.43
2022-11-23T06:13:53.345Z,5.93
2022-11-23T06:16:25.208Z,7.10
2022-11-23T06:19:02.410Z,4.43
2022-11-23T06:21:36.684Z,5.30
2022-11-23T06:24:41.906Z,5.90
2022-11-23T06:27:27.826Z,5.80
2022-11-23T06:30:37.936Z,10.10
2022-11-23T06:33:07.281Z,6.23
2022-11-23T06:35:36.797Z,12.17
2022-11-23T06:38:06.405Z,2.57
2022-11-23T06:40:34.649Z,7.50
2022-11-23T06:43:02.782Z,5.73
2022-11-23T06:45:30.891Z,4.80
2022-11-23T06:47:59.193Z,14.87
2022-11-23T06:50:27.485Z,7.63
2022-11-23T06:52:58.652Z,4.43
2022-11-23T06:55:27.653Z,3.83
2022-11-23T06:57:57.636Z,5.97
2022-11-23T07:00:26.068Z,5.10
2022-11-23T07:02:55.809Z,12.10
2022-11-23T07:05:25.342Z,4.30
2022-11-23T07:07:55.469Z,7.87
2022-11-23T07:10:29.358Z,3.40
2022-11-23T07:13:04.081Z,5.07
2022-11-23T07:15:32.170Z,6.07
2022-11-23T07:18:00.953Z,6.20
2022-11-23T07:20:29.574Z,5.17
2022-11-23T07:23:05.243Z,4.03
2022-11-23T07:25:39.098Z,8.87
2022-11-23T07:28:09.208Z,6.30
2022-11-23T07:30:37.605Z,4.83
2022-11-23T07:33:08.406Z,7.03
2022-11-23T07:35:37.256Z,6.77
2022-11-23T07:38:08.331Z,5.77
2022-11-23T07:40:39.948Z,8.33
2022-11-23T07:43:08.655Z,5.93
2022-11-23T07:45:38.851Z,6.70
2022-11-23T07:48:09.052Z,4.53
2022-11-23T07:50:39.218Z,7.93
2022-11-23T07:53:08.518Z,9.40
2022-11-23T07:55:38.246Z,6.93
2022-11-23T07:58:06.927Z,10.17
2022-11-23T08:00:35.082Z,6.63
2022-11-23T08:05:51.884Z,4.47
2022-11-23T08:08:20.336Z,13.37
2022-11-23T08:10:53.525Z,9.00
2022-11-23T08:13:23.562Z,7.43
2022-11-23T08:15:56.122Z,4.20
2022-11-23T08:18:24.776Z,6.57
2022-11-23T08:20:53.126Z,5.87
2022-11-23T08:23:22.067Z,7.00
2022-11-23T08:25:51.542Z,2.60
2022-11-23T08:28:20.061Z,5.17
2022-11-23T08:30:48.808Z,7.50
2022-11-23T08:33:17.340Z,4.60
2022-11-23T08:35:45.564Z,5.80
2022-11-23T08:38:14.168Z,5.23
2022-11-23T08:40:42.511Z,6.90
2022-11-23T08:43:12.011Z,7.60
2022-11-23T08:45:40.465Z,6.43
2022-11-23T08:48:08.868Z,8.53
2022-11-23T08:50:39.546Z,7.80
2022-11-23T08:53:08.145Z,5.70
2022-11-23T08:55:36.327Z,5.47
2022-11-23T08:58:06.799Z,14.30
2022-11-23T09:00:40.279Z,5.17
2022-11-23T09:03:08.393Z,12.20
2022-11-23T09:05:39.715Z,7.33
2022-11-23T09:08:09.015Z,11.57
2022-11-23T09:10:37.954Z,9.93
2022-11-23T09:13:06.270Z,8.47
2022-11-23T09:15:34.648Z,9.20
2022-11-23T09:18:04.117Z,11.10
2022-11-23T09:20:32.605Z,7.83
2022-11-23T09:23:00.854Z,8.30
2022-11-23T09:25:29.215Z,7.70
2022-11-23T09:27:59.315Z,7.60
2022-11-23T09:30:27.792Z,8.90
2022-11-23T09:32:57.514Z,10.87
2022-11-23T09:35:27.533Z,7.27
2022-11-23T09:37:59.491Z,9.23
2022-11-23T09:40:32.181Z,6.50
2022-11-23T09:43:18.519Z,6.33
2022-11-23T09:45:50.457Z,8.23
2022-11-23T09:48:38.811Z,13.93
2022-11-23T09:51:16.111Z,11.63
2022-11-23T09:53:47.908Z,6.97
2022-11-23T09:56:19.770Z,12.30
2022-11-23T09:58:47.959Z,9.87
2022-11-23T10:01:17.864Z,9.53
2022-11-23T10:03:49.098Z,5.97
2022-11-23T10:06:25.728Z,8.40
2022-11-23T10:09:07.232Z,8.33
2022-11-23T10:11:57.354Z,8.37
2022-11-23T10:14:40.665Z,3.57
2022-11-23T10:17:16.781Z,11.97
2022-11-23T10:20:00.432Z,9.93
2022-11-23T10:22:34.884Z,9.50
2022-11-23T10:25:12.199Z,5.70
2022-11-23T10:27:40.565Z,8.57
2022-11-23T10:30:13.626Z,5.30
2022-11-23T10:32:48.150Z,8.90
2022-11-23T10:35:19.436Z,9.73
2022-11-23T10:37:51.265Z,8.23
2022-11-23T10:40:27.268Z,15.90
2022-11-23T10:42:59.214Z,8.03
2022-11-23T10:45:29.297Z,6.10
2022-11-23T10:47:59.489Z,10.33
2022-11-23T10:50:30.362Z,36.03
2022-11-23T10:53:02.558Z,8.97
2022-11-23T10:55:32.184Z,8.97
2022-11-23T10:58:00.879Z,5.60
2022-11-23T11:00:31.284Z,10.80
2022-11-23T11:03:02.411Z,8.37
2022-11-23T11:08:28.985Z,5.50
2022-11-23T11:11:02.710Z,10.63
2022-11-23T11:13:33.070Z,8.63
2022-11-23T11:16:04.207Z,7.10
2022-11-23T11:18:34.433Z,6.80
2022-11-23T11:21:07.029Z,4.33
2022-11-23T11:23:42.095Z,4.63
2022-11-23T11:26:20.070Z,5.30
2022-11-23T11:28:51.005Z,11.17
2022-11-23T11:31:50.535Z,6.00
2022-11-23T11:34:25.149Z,4.20
2022-11-23T11:37:01.916Z,6.87
2022-11-23T11:39:36.692Z,4.10
2022-11-23T11:42:08.704Z,7.60
2022-11-23T11:44:44.184Z,3.00
2022-11-23T11:47:23.868Z,7.57
2022-11-23T11:49:57.987Z,8.93
2022-11-23T11:52:29.817Z,6.20
2022-11-23T11:55:07.249Z,8.67
2022-11-23T11:57:41.674Z,4.10
2022-11-23T12:00:15.425Z,2.70
2022-11-23T12:02:54.282Z,2.57
2022-11-23T12:05:26.951Z,4.10
2022-11-23T12:08:08.101Z,9.30
2022-11-23T12:10:46.398Z,10.17
2022-11-23T12:13:18.823Z,5.20
2022-11-23T12:15:51.008Z,6.40
2022-11-23T12:19:09.448Z,2.10
2022-11-23T12:22:11.527Z,4.13
2022-11-23T12:24:56.466Z,3.67
2022-11-23T12:27:37.120Z,5.40
2022-11-23T12:30:20.744Z,6.10
2022-11-23T12:33:06.743Z,3.37
2022-11-23T12:35:55.385Z,5.00
2022-11-23T12:38:34.658Z,4.37
2022-11-23T12:41:28.891Z,2.13
2022-11-23T12:44:27.986Z,3.67
2022-11-23T12:47:05.625Z,5.13
2022-11-23T12:49:48.331Z,6.00
2022-11-23T12:52:43.543Z,2.00
2022-11-23T12:55:22.565Z,6.13
2022-11-23T12:58:03.758Z,8.60
2022-11-23T13:00:40.007Z,7.67
2022-11-23T13:03:40.952Z,2.70
2022-11-23T13:06:36.103Z,7.80
2022-11-23T13:09:42.031Z,6.47
2022-11-23T13:12:42.465Z,3.17
2022-11-23T13:18:43.157Z,5.30
2022-11-23T13:21:40.540Z,3.27
2022-11-23T13:24:31.294Z,7.80
2022-11-23T13:27:32.989Z,6.70
2022-11-23T13:30:12.221Z,8.17
2022-11-23T13:32:56.198Z,6.37
2022-11-23T13:46:31.736Z,6.43
2022-11-23T13:49:01.802Z,5.53
2022-11-23T13:51:32.567Z,4.73
2022-11-23T13:54:03.505Z,5.63
2022-11-23T13:56:35.211Z,5.03
2022-11-23T13:59:31.615Z,8.50
2022-11-23T14:02:30.483Z,3.60
2022-11-23T14:05:54.184Z,5.37
2022-11-23T14:08:22.731Z,3.60
2022-11-23T14:10:54.783Z,6.80
2022-11-23T14:13:30.236Z,5.80
2022-11-23T14:16:02.263Z,3.50
2022-11-23T14:19:04.542Z,6.43
2022-11-23T14:21:41.368Z,8.07
2022-11-23T14:24:39.186Z,4.03
2022-11-23T14:30:42.200Z,5.77
2022-11-23T14:33:23.514Z,3.80
2022-11-23T14:36:04.340Z,8.43
2022-11-23T14:38:48.311Z,5.90
2022-11-23T14:41:19.214Z,6.60
2022-11-23T14:43:48.464Z,7.97
2022-11-23T14:46:19.287Z,6.00
2022-11-23T14:48:48.128Z,2.93
2022-11-23T14:51:20.135Z,10.57
2022-11-23T14:53:52.951Z,3.30
2022-11-23T14:56:29.255Z,7.27
2022-11-23T14:59:03.034Z,9.03
2022-11-23T15:01:31.742Z,7.50
2022-11-23T15:04:01.157Z,8.73
2022-11-23T15:06:34.218Z,5.93
2022-11-23T15:09:10.180Z,4.27
2022-11-23T15:11:40.331Z,6.20
2022-11-23T15:14:21.238Z,8.20
2022-11-23T15:16:51.210Z,11.37
2022-11-23T15:19:28.266Z,8.10
2022-11-23T15:22:00.656Z,12.10
2022-11-23T15:24:31.510Z,11.60
2022-11-23T15:27:12.353Z,8.13
2022-11-23T15:29:51.547Z,3.23
2022-11-23T15:32:35.311Z,6.00
2022-11-23T15:35:07.827Z,5.20
2022-11-23T15:37:47.249Z,6.23
2022-11-23T15:40:16.458Z,5.60
2022-11-23T15:42:45.485Z,5.87
2022-11-23T15:45:40.159Z,7.57
2022-11-23T15:48:13.719Z,9.93
2022-11-23T15:50:54.669Z,8.40
2022-11-23T15:53:29.047Z,9.13
2022-11-23T15:56:02.360Z,11.27
2022-11-23T15:58:31.548Z,6.00
2022-11-23T16:01:07.854Z,4.07
2022-11-23T16:03:41.849Z,7.17
2022-11-23T16:06:24.452Z,5.20
2022-11-23T16:08:53.916Z,5.37
2022-11-23T16:11:28.761Z,10.43
2022-11-23T16:14:15.815Z,8.13
2022-11-23T16:16:46.339Z,7.30
2022-11-23T16:19:27.858Z,6.20
2022-11-23T16:22:02.532Z,7.40
2022-11-23T16:24:35.071Z,5.60
2022-11-23T16:27:13.974Z,10.23
2022-11-23T16:29:42.974Z,7.40
2022-11-23T16:32:27.847Z,6.20
2022-11-23T16:34:58.952Z,4.33
2022-11-23T16:37:28.936Z,8.67
2022-11-23T16:39:58.424Z,6.40
2022-11-23T16:42:27.156Z,6.77
2022-11-23T16:44:55.167Z,8.40
2022-11-23T16:47:25.932Z,5.90
2022-11-23T16:49:54.992Z,4.80
2022-11-23T16:52:24.400Z,9.07
2022-11-23T16:54:53.834Z,9.90
2022-11-23T16:57:29.993Z,7.07
2022-11-23T16:59:58.848Z,13.20
2022-11-23T17:02:30.208Z,11.50
2022-11-23T17:04:58.432Z,6.83
2022-11-23T17:07:26.840Z,10.83
2022-11-23T17:09:56.452Z,5.30
2022-11-23T17:12:26.241Z,7.73
2022-11-23T17:14:54.307Z,9.37
2022-11-23T17:17:23.815Z,8.40
2022-11-23T17:19:52.649Z,10.67
2022-11-23T17:22:21.515Z,11.60
2022-11-23T17:24:51.529Z,10.93
2022-11-23T17:27:23.093Z,12.40
2022-11-23T17:29:58.170Z,8.30
2022-11-23T17:32:27.009Z,7.63
2022-11-23T17:34:55.399Z,9.67
2022-11-23T17:37:25.226Z,12.40
2022-11-23T17:39:53.566Z,9.20
2022-11-23T17:42:21.836Z,9.73
2022-11-23T17:44:49.866Z,8.70
2022-11-23T17:47:24.947Z,7.10
2022-11-23T17:49:53.407Z,10.53
2022-11-23T17:52:21.598Z,9.60
2022-11-23T17:54:49.756Z,14.40
2022-11-23T17:57:20.093Z,9.93
2022-11-23T17:59:48.144Z,10.97
2022-11-23T18:02:16.521Z,17.33
2022-11-23T18:04:53.750Z,13.47
2022-11-23T18:07:22.675Z,13.03
2022-11-23T18:09:51.070Z,10.07
2022-11-23T18:12:19.378Z,23.50
2022-11-23T18:14:47.478Z,10.67
2022-11-23T18:17:16.552Z,13.57
2022-11-23T18:19:44.893Z,11.33
2022-11-23T18:22:14.245Z,10.20
2022-11-23T18:24:42.518Z,17.07
2022-11-23T18:27:11.151Z,13.33
2022-11-23T18:29:40.264Z,17.53
2022-11-23T18:32:08.952Z,15.50
2022-11-23T18:34:37.185Z,13.30
2022-11-23T18:37:05.695Z,14.93
2022-11-23T18:39:35.861Z,13.83
2022-11-23T18:42:06.152Z,14.90
2022-11-23T18:44:35.146Z,12.47
2022-11-23T18:47:03.373Z,8.40
2022-11-23T18:49:32.697Z,15.63
2022-11-23T18:52:01.108Z,15.43
2022-11-23T18:54:29.212Z,15.80
2022-11-23T18:56:58.666Z,13.33
2022-11-23T18:59:56.159Z,13.30
2022-11-23T19:02:14.874Z,21.90
2022-11-23T19:04:43.154Z,6.93
2022-11-23T19:07:11.352Z,11.33
2022-11-23T19:09:40.036Z,13.53
2022-11-23T19:12:09.930Z,15.73
2022-11-23T19:14:37.868Z,14.50
2022-11-23T19:17:05.812Z,11.33
2022-11-23T19:19:33.951Z,11.50
2022-11-23T19:22:02.349Z,13.03
2022-11-23T19:24:30.478Z,13.50
2022-11-23T19:26:58.928Z,20.10
2022-11-23T19:29:29.015Z,9.33
2022-11-23T19:31:57.391Z,13.77
2022-11-23T19:34:25.895Z,12.27
2022-11-23T19:36:54.227Z,16.90
2022-11-23T19:39:22.304Z,12.73
2022-11-23T19:41:51.123Z,19.60
2022-11-23T19:44:19.488Z,23.50
2022-11-23T19:46:49.179Z,17.47
2022-11-23T19:49:17.418Z,15.33
2022-11-23T19:51:47.543Z,15.73
2022-11-23T19:54:15.683Z,18.53
2022-11-23T19:56:43.820Z,23.33
2022-11-23T19:59:11.951Z,20.03
2022-11-23T20:01:39.994Z,20.50
2022-11-23T20:04:11.765Z,18.17
2022-11-23T20:06:42.539Z,21.87
2022-11-23T20:09:12.469Z,24.83
2022-11-23T20:11:44.763Z,14.83
2022-11-23T20:14:15.428Z,16.27
2022-11-23T20:16:43.730Z,22.83
2022-11-23T20:19:13.361Z,23.03
2022-11-23T20:21:44.473Z,22.10
2022-11-23T20:24:14.333Z,20.97
2022-11-23T20:26:43.360Z,24.20
2022-11-23T20:29:14.110Z,23.27
2022-11-23T20:31:42.173Z,23.60
2022-11-23T20:34:15.327Z,23.87
2022-11-23T20:36:46.429Z,23.87
2022-11-23T20:39:16.299Z,14.63
2022-11-23T20:41:45.098Z,20.73
2022-11-23T20:44:15.030Z,32.93
2022-11-23T20:49:32.293Z,24.50
2022-11-23T20:52:02.265Z,26.90
2022-11-23T20:54:30.457Z,21.13
2022-11-23T20:57:00.180Z,21.77
2022-11-23T20:59:32.942Z,24.77
2022-11-23T21:02:01.237Z,28.47
2022-11-23T21:04:29.293Z,27.00
2022-11-23T21:06:57.727Z,24.90
2022-11-23T21:09:27.267Z,28.47
2022-11-23T21:12:12.620Z,21.67
2022-11-23T21:14:40.609Z,23.20
2022-11-23T21:17:08.909Z,26.83
2022-11-23T21:19:39.237Z,22.70
2022-11-23T21:22:09.328Z,20.40
2022-11-23T21:24:39.162Z,25.60
2022-11-23T21:27:09.814Z,20.03
2022-11-23T21:29:38.072Z,18.40
2022-11-23T21:32:06.995Z,22.17
2022-11-23T21:34:35.503Z,19.30
2022-11-23T21:37:03.912Z,19.00
2022-11-23T21:39:33.086Z,20.87
2022-11-23T21:42:02.633Z,20.30
2022-11-23T21:44:31.100Z,19.20
2022-11-23T21:46:59.196Z,18.63
2022-11-23T21:49:28.492Z,23.17
2022-11-23T21:51:56.741Z,16.57
2022-11-23T21:54:24.848Z,20.13
2022-11-23T21:56:57.857Z,20.20
2022-11-23T21:59:27.145Z,14.20
2022-11-23T22:01:58.714Z,20.20
2022-11-23T22:04:27.243Z,15.97
2022-11-23T22:06:55.329Z,14.30
2022-11-23T22:09:23.449Z,21.70
2022-11-23T22:11:51.478Z,17.83
2022-11-23T22:14:19.865Z,18.93
2022-11-23T22:16:50.899Z,12.53
2022-11-23T22:19:19.422Z,13.00
2022-11-23T22:21:48.329Z,10.87
2022-11-23T22:24:18.842Z,11.57
2022-11-23T22:26:47.988Z,9.70
2022-11-23T22:29:16.549Z,7.63
2022-11-23T22:31:45.199Z,10.73
2022-11-23T22:34:15.345Z,11.40
2022-11-23T22:36:43.839Z,7.20
2022-11-23T22:39:12.003Z,9.67
2022-11-23T22:41:40.048Z,12.47
2022-11-23T22:44:10.045Z,10.73
2022-11-23T22:46:39.261Z,8.63
2022-11-23T22:49:07.566Z,8.27
2022-11-23T22:51:37.097Z,14.73
2022-11-23T22:54:05.690Z,16.03
2022-11-23T22:56:34.472Z,8.37
2022-11-23T22:59:02.543Z,14.37
2022-11-23T23:01:31.580Z,7.83
2022-11-23T23:04:01.692Z,11.23
2022-11-23T23:06:34.937Z,7.77
2022-11-23T23:09:07.350Z,9.93
2022-11-23T23:11:37.019Z,13.03
2022-11-23T23:14:05.193Z,9.60
2022-11-23T23:16:33.811Z,10.00
2022-11-23T23:19:03.428Z,11.77
2022-11-23T23:21:31.597Z,9.00
2022-11-23T23:24:01.312Z,9.83
2022-11-23T23:26:31.062Z,8.10
2022-11-23T23:29:00.671Z,7.60
2022-11-23T23:31:29.919Z,7.03
2022-11-23T23:33:58.277Z,10.00
2022-11-23T23:36:26.417Z,6.90
2022-11-23T23:38:54.773Z,8.10
2022-11-23T23:41:22.965Z,10.00
2022-11-23T23:43:52.513Z,7.13
2022-11-23T23:46:20.618Z,8.83
2022-11-23T23:48:48.835Z,10.70
2022-11-23T23:51:18.701Z,9.37
2022-11-23T23:53:47.652Z,7.67
2022-11-23T23:56:17.391Z,7.27
2022-11-23T23:58:45.943Z,7.50
